Terminal Aerodrome Forecast
Issued by NWS

Home | Current Version | Previous Version | Text Only | Print | Product List | Glossary Off
Versions: 1 2 3 4 5 6 7 8 9 10 11 12 13 14 15 16 17 18 19 20 21 22 23 24 25 26 27 28 29 30 31 32 33 34 35

000
FTUS43 KLOT 250900 AAA
TAFORD
TAF AMD
KORD 250917Z 2509/2612 27011G16KT P6SM -SHSN BKN018 OVC035
      TEMPO 2509/2511 1 1/2SM -SHSN BKN015
     FM251400 27010KT P6SM BKN025
     FM251800 27010KT P6SM BKN035
     FM260000 24006KT P6SM SCT035
     FM260600 19004KT P6SM SCT250=

USA.gov is the U.S. government's official web portal to all federal, state and local government web resources and services.